Time;durP1;ratioP1;P1;durP2;ratioP2;P2;SDS_P1;SDS_P2;PMS_P1;PMS_P2;Temp;Humidity;BMP_temperature;BMP_pressure;BME280_temperature;BME280_humidity;BME280_pressure;Samples;Min_cycle;Max_cycle;Signal;HPM_P1;HPM_P2
2023/01/25 00:00:13;;;;;;;21.48;16.40;;;2.60;99.90;;;;;;5087001;28;20027;-43
2023/01/25 00:02:38;;;;;;;21.20;16.02;;;2.70;99.90;;;;;;5087001;28;20035;-43
2023/01/25 00:05:04;;;;;;;21.42;16.25;;;2.70;99.90;;;;;;5087337;28;20027;-43
2023/01/25 00:07:30;;;;;;;19.52;15.65;;;2.70;99.90;;;;;;5084909;28;20031;-43
2023/01/25 00:09:55;;;;;;;23.02;16.13;;;2.70;99.90;;;;;;5081450;28;20109;-43
2023/01/25 00:12:21;;;;;;;21.25;16.60;;;2.70;99.90;;;;;;5082510;28;20052;-43
2023/01/25 00:14:46;;;;;;;21.85;16.00;;;2.70;99.90;;;;;;5083669;28;20089;-44
2023/01/25 00:17:12;;;;;;;21.55;16.33;;;2.70;99.90;;;;;;5082732;28;20039;-43
2023/01/25 00:19:38;;;;;;;22.35;16.33;;;2.70;99.90;;;;;;5084173;28;20023;-43
2023/01/25 00:22:03;;;;;;;21.63;16.42;;;2.60;99.90;;;;;;5083148;28;20024;-42
2023/01/25 00:24:29;;;;;;;21.90;16.58;;;2.60;99.90;;;;;;5083599;28;20107;-43
2023/01/25 00:26:54;;;;;;;24.10;17.77;;;2.60;99.90;;;;;;5084627;28;20024;-44
2023/01/25 00:29:20;;;;;;;24.55;18.70;;;2.60;99.90;;;;;;5083691;28;20108;-44
2023/01/25 00:31:58;;;;;;;23.17;17.95;;;2.50;99.90;;;;;;5083256;28;20130;-43
2023/01/25 00:34:24;;;;;;;22.80;17.30;;;2.50;99.90;;;;;;5083830;28;20047;-44
2023/01/25 00:37:13;;;;;;;21.85;17.17;;;2.40;99.90;;;;;;5083727;28;20032;-42
2023/01/25 00:39:38;;;;;;;24.52;18.00;;;2.40;99.90;;;;;;5083204;28;20016;-44
2023/01/25 00:42:07;;;;;;;21.95;16.52;;;2.40;99.90;;;;;;5083506;28;20031;-41
2023/01/25 00:44:32;;;;;;;21.30;16.75;;;2.50;99.90;;;;;;5083088;28;20024;-43
2023/01/25 00:46:58;;;;;;;22.73;17.30;;;2.50;99.90;;;;;;5082760;28;20763;-42
2023/01/25 00:49:26;;;;;;;22.80;16.73;;;2.50;99.90;;;;;;5083148;28;20592;-44
2023/01/25 00:51:52;;;;;;;23.33;17.42;;;2.50;99.90;;;;;;5082738;28;20039;-42
2023/01/25 00:54:19;;;;;;;21.70;16.98;;;2.50;99.90;;;;;;5083002;28;20024;-43
2023/01/25 00:56:45;;;;;;;22.20;17.58;;;2.50;99.90;;;;;;5083957;28;20029;-44
2023/01/25 00:59:11;;;;;;;21.27;16.70;;;2.50;99.90;;;;;;5082741;28;20639;-43
2023/01/25 01:01:38;;;;;;;21.70;16.95;;;2.50;99.90;;;;;;5083094;28;20131;-43
2023/01/25 01:04:04;;;;;;;22.73;16.92;;;2.50;99.90;;;;;;5082402;28;20356;-42
2023/01/25 01:06:30;;;;;;;22.75;17.20;;;2.60;99.90;;;;;;5082538;28;20467;-43
2023/01/25 01:08:55;;;;;;;22.35;17.00;;;2.50;99.90;;;;;;5083402;28;20035;-43
2023/01/25 01:11:21;;;;;;;23.15;17.25;;;2.50;99.90;;;;;;5081540;28;20039;-43
2023/01/25 01:13:46;;;;;;;21.80;17.17;;;2.50;99.90;;;;;;5077872;28;20111;-42
2023/01/25 01:16:12;;;;;;;23.67;17.17;;;2.50;99.90;;;;;;5074381;28;20697;-44
2023/01/25 01:18:41;;;;;;;22.63;17.52;;;2.50;99.90;;;;;;5082923;28;20547;-42
2023/01/25 01:21:07;;;;;;;23.42;17.80;;;2.50;99.90;;;;;;5081074;28;20831;-43
2023/01/25 01:23:33;;;;;;;24.58;18.17;;;2.40;99.90;;;;;;5083057;28;20042;-43
2023/01/25 01:26:00;;;;;;;22.85;16.98;;;2.40;99.90;;;;;;5082297;28;20024;-43
2023/01/25 01:28:27;;;;;;;21.95;17.88;;;2.40;99.90;;;;;;5081837;28;20492;-43
2023/01/25 01:30:53;;;;;;;21.60;17.23;;;2.40;99.90;;;;;;5082362;28;20768;-43
2023/01/25 01:33:18;;;;;;;22.65;17.08;;;2.40;99.90;;;;;;5081850;28;20143;-42
2023/01/25 01:35:45;;;;;;;23.55;17.73;;;2.40;99.90;;;;;;5081596;28;20047;-43
2023/01/25 01:38:11;;;;;;;22.42;17.10;;;2.40;99.90;;;;;;5081359;28;20062;-43
2023/01/25 01:40:37;;;;;;;21.90;17.30;;;2.40;99.90;;;;;;5082315;28;20111;-43
2023/01/25 01:43:17;;;;;;;23.25;17.33;;;2.40;99.90;;;;;;5080801;28;20031;-43
2023/01/25 01:45:43;;;;;;;23.90;18.60;;;2.30;99.90;;;;;;5082798;28;20036;-42
2023/01/25 01:48:33;;;;;;;24.92;18.40;;;2.30;99.90;;;;;;5081119;28;20043;-43
2023/01/25 01:51:15;;;;;;;25.08;18.83;;;2.40;99.90;;;;;;5081710;28;20032;-43
2023/01/25 01:53:45;;;;;;;25.75;18.98;;;2.30;99.90;;;;;;5082245;28;20059;-42
2023/01/25 01:56:15;;;;;;;24.88;18.42;;;2.30;99.90;;;;;;5080446;28;20747;-42
2023/01/25 01:58:42;;;;;;;24.30;18.13;;;2.30;99.90;;;;;;5081389;28;20036;-43
2023/01/25 02:01:08;;;;;;;24.00;17.42;;;2.30;99.90;;;;;;5082016;28;20077;-43
2023/01/25 02:03:35;;;;;;;24.27;18.35;;;2.30;99.90;;;;;;5080584;28;20020;-43
2023/01/25 02:06:11;;;;;;;22.52;17.85;;;2.20;99.90;;;;;;5081291;28;20028;-42
2023/01/25 02:08:39;;;;;;;21.67;16.85;;;2.30;99.90;;;;;;5081973;28;20050;-43
2023/01/25 02:11:06;;;;;;;26.33;18.67;;;2.30;99.90;;;;;;5080542;28;20035;-43
2023/01/25 02:13:34;;;;;;;23.80;18.45;;;2.20;99.90;;;;;;5081472;28;20816;-43
2023/01/25 02:16:00;;;;;;;26.08;19.92;;;2.30;99.90;;;;;;5080421;28;20028;-43
2023/01/25 02:18:25;;;;;;;26.90;19.75;;;2.20;99.90;;;;;;5081594;28;20047;-43
2023/01/25 02:20:54;;;;;;;24.63;19.27;;;2.20;99.90;;;;;;5082130;28;20102;-44
2023/01/25 02:23:34;;;;;;;22.75;17.98;;;2.20;99.90;;;;;;5080440;28;20024;-44
2023/01/25 02:26:02;;;;;;;24.15;18.05;;;2.10;99.90;;;;;;5081014;28;20028;-43
2023/01/25 02:28:36;;;;;;;24.90;17.33;;;2.10;99.90;;;;;;5081377;28;20035;-42
2023/01/25 02:31:02;;;;;;;23.77;18.27;;;2.10;99.90;;;;;;5079679;28;20076;-43
2023/01/25 02:33:27;;;;;;;22.75;17.08;;;2.10;99.90;;;;;;5081024;28;20684;-42
2023/01/25 02:36:11;;;;;;;21.20;17.25;;;2.10;99.90;;;;;;5081448;28;20866;-43
2023/01/25 02:38:41;;;;;;;23.85;17.80;;;2.10;99.90;;;;;;5080631;28;20031;-43
2023/01/25 02:41:12;;;;;;;24.90;19.08;;;2.10;99.90;;;;;;5080587;28;20031;-44
2023/01/25 02:43:38;;;;;;;23.08;18.05;;;2.10;99.90;;;;;;5082254;28;20055;-43
2023/01/25 02:46:26;;;;;;;22.20;17.60;;;2.10;99.90;;;;;;5080575;28;20111;-44
2023/01/25 02:48:53;;;;;;;20.77;16.60;;;2.20;99.90;;;;;;5081414;28;20628;-42
2023/01/25 02:51:20;;;;;;;20.70;16.25;;;2.20;99.90;;;;;;5080154;28;20573;-43
2023/01/25 02:53:46;;;;;;;21.10;16.38;;;2.20;99.90;;;;;;5082045;28;20058;-43
2023/01/25 02:56:11;;;;;;;20.98;16.33;;;2.20;99.90;;;;;;5081318;28;20072;-42
2023/01/25 02:58:37;;;;;;;23.67;18.08;;;2.10;99.90;;;;;;5080626;28;20383;-42
2023/01/25 03:01:02;;;;;;;23.58;18.15;;;2.20;99.90;;;;;;5080766;28;20028;-43
2023/01/25 03:03:28;;;;;;;25.40;18.88;;;2.20;99.90;;;;;;5080882;28;20032;-42
2023/01/25 03:05:53;;;;;;;25.33;18.52;;;2.20;99.90;;;;;;5080239;28;20020;-43
2023/01/25 03:08:19;;;;;;;23.42;18.38;;;2.20;99.90;;;;;;5081117;28;20111;-42
2023/01/25 03:10:44;;;;;;;24.42;18.42;;;2.20;99.90;;;;;;5081110;28;20024;-43
2023/01/25 03:13:10;;;;;;;24.40;17.88;;;2.20;99.90;;;;;;5079880;28;20031;-43
2023/01/25 03:15:35;;;;;;;23.30;17.85;;;2.20;99.90;;;;;;5080793;28;20028;-44
2023/01/25 03:18:01;;;;;;;23.17;17.80;;;2.20;99.90;;;;;;5080251;28;20111;-43
2023/01/25 03:20:26;;;;;;;22.88;17.70;;;2.20;99.90;;;;;;5080393;28;20046;-44
2023/01/25 03:22:53;;;;;;;24.13;17.58;;;2.20;99.90;;;;;;5081068;28;20114;-43
2023/01/25 03:25:19;;;;;;;20.83;17.05;;;2.20;99.90;;;;;;5080439;28;20028;-43
2023/01/25 03:27:44;;;;;;;23.75;17.77;;;2.20;99.90;;;;;;5080606;28;20027;-43
2023/01/25 03:30:10;;;;;;;20.98;16.55;;;2.20;99.90;;;;;;5080177;28;20016;-43
2023/01/25 03:32:36;;;;;;;21.92;17.13;;;2.20;99.90;;;;;;5080924;28;20047;-43
2023/01/25 03:35:02;;;;;;;21.77;17.52;;;2.20;99.90;;;;;;5079527;28;20048;-44
2023/01/25 03:37:30;;;;;;;19.35;16.13;;;2.20;99.90;;;;;;5080618;28;20697;-44
2023/01/25 03:39:58;;;;;;;21.85;17.08;;;2.20;99.90;;;;;;5080752;28;20024;-43
2023/01/25 03:42:24;;;;;;;21.45;16.52;;;2.10;99.90;;;;;;5082692;28;20023;-43
2023/01/25 03:44:50;;;;;;;21.55;16.92;;;2.10;99.90;;;;;;5084747;28;20394;-43
2023/01/25 03:47:15;;;;;;;22.63;16.92;;;2.10;99.90;;;;;;5083436;28;20028;-43
2023/01/25 03:49:41;;;;;;;22.30;17.05;;;2.10;99.90;;;;;;5084488;28;20796;-43
2023/01/25 03:52:07;;;;;;;22.73;17.05;;;2.10;99.90;;;;;;5083301;28;20043;-43
2023/01/25 03:54:32;;;;;;;22.40;17.35;;;2.10;99.90;;;;;;5084071;28;20039;-44
2023/01/25 03:56:58;;;;;;;23.30;17.58;;;2.10;99.90;;;;;;5084370;28;20024;-43
2023/01/25 03:59:24;;;;;;;22.02;17.17;;;2.10;99.90;;;;;;5083745;28;20418;-43
2023/01/25 04:01:50;;;;;;;21.35;16.40;;;2.10;99.90;;;;;;5083409;28;20566;-43
2023/01/25 04:04:15;;;;;;;21.60;15.90;;;2.10;99.90;;;;;;5083483;28;20057;-43
2023/01/25 04:06:41;;;;;;;20.67;16.30;;;2.00;99.90;;;;;;5084111;28;20051;-43
2023/01/25 04:09:06;;;;;;;20.90;16.67;;;2.00;99.90;;;;;;5083109;28;20424;-43
2023/01/25 04:11:32;;;;;;;20.40;16.67;;;2.00;99.90;;;;;;5084065;28;20622;-43
2023/01/25 04:13:58;;;;;;;23.40;18.08;;;2.00;99.90;;;;;;5083856;28;20452;-43
2023/01/25 04:16:23;;;;;;;23.13;17.10;;;2.00;99.90;;;;;;5083019;28;20020;-42
2023/01/25 04:18:49;;;;;;;22.00;16.77;;;2.00;99.90;;;;;;5083929;28;20024;-44
2023/01/25 04:21:14;;;;;;;23.00;17.50;;;2.00;99.90;;;;;;5083032;28;20032;-42
2023/01/25 04:23:40;;;;;;;23.17;18.10;;;2.00;99.90;;;;;;5083242;28;20472;-42
2023/01/25 04:26:07;;;;;;;24.10;18.15;;;2.00;99.90;;;;;;5083665;28;20589;-42
2023/01/25 04:28:34;;;;;;;23.15;18.17;;;2.00;99.90;;;;;;5083462;28;20035;-43
2023/01/25 04:31:00;;;;;;;23.38;18.42;;;2.00;99.90;;;;;;5082778;28;20825;-43
2023/01/25 04:33:26;;;;;;;24.52;18.75;;;1.90;99.90;;;;;;5083975;28;20032;-43
2023/01/25 04:35:51;;;;;;;23.90;18.30;;;1.90;99.90;;;;;;5084649;28;20052;-44
2023/01/25 04:38:18;;;;;;;22.65;18.25;;;2.00;99.90;;;;;;5082309;28;20032;-42
2023/01/25 04:40:43;;;;;;;22.77;17.70;;;1.90;99.90;;;;;;5083881;28;20119;-43
2023/01/25 04:43:11;;;;;;;24.20;18.08;;;1.90;99.90;;;;;;5082777;28;20028;-42
2023/01/25 04:45:37;;;;;;;24.20;19.15;;;2.00;99.90;;;;;;5082884;28;20059;-43
2023/01/25 04:48:08;;;;;;;25.60;19.13;;;1.90;99.90;;;;;;5082987;28;20440;-42
2023/01/25 04:50:37;;;;;;;24.00;18.65;;;1.90;99.90;;;;;;5083388;28;20024;-43
2023/01/25 04:53:03;;;;;;;23.58;18.05;;;1.90;99.90;;;;;;5082297;28;20024;-42
2023/01/25 04:55:29;;;;;;;23.13;17.80;;;1.90;99.90;;;;;;5083411;28;20013;-43
2023/01/25 04:57:55;;;;;;;22.58;17.52;;;1.90;99.90;;;;;;5082944;28;20055;-42
2023/01/25 05:00:20;;;;;;;23.00;17.35;;;1.90;99.90;;;;;;5082959;28;20498;-43
2023/01/25 05:02:46;;;;;;;24.83;18.88;;;1.90;99.90;;;;;;5083234;28;20479;-43
2023/01/25 05:05:12;;;;;;;24.60;18.48;;;1.90;99.90;;;;;;5081924;28;20727;-43
2023/01/25 05:07:38;;;;;;;26.38;19.60;;;1.80;99.90;;;;;;5083151;28;20426;-43
2023/01/25 05:10:05;;;;;;;24.88;18.48;;;1.80;99.90;;;;;;5082080;28;20004;-44
2023/01/25 05:12:31;;;;;;;24.90;18.90;;;1.80;99.90;;;;;;5082619;28;20396;-44
2023/01/25 05:14:56;;;;;;;24.67;18.55;;;1.80;99.90;;;;;;5083535;28;20027;-43
2023/01/25 05:17:22;;;;;;;24.67;18.90;;;1.70;99.90;;;;;;5083322;28;20024;-43
2023/01/25 05:19:48;;;;;;;26.48;19.38;;;1.80;99.90;;;;;;5081993;28;20440;-43
2023/01/25 05:22:15;;;;;;;28.10;19.73;;;1.80;99.90;;;;;;5082753;28;20077;-43
2023/01/25 05:24:41;;;;;;;25.85;19.20;;;1.80;99.90;;;;;;5082520;28;20111;-42
2023/01/25 05:27:08;;;;;;;27.77;20.48;;;1.80;99.90;;;;;;5081628;28;20028;-43
2023/01/25 05:29:39;;;;;;;28.88;21.20;;;1.70;99.90;;;;;;5082423;28;20020;-43
2023/01/25 05:32:08;;;;;;;30.83;21.67;;;1.70;99.90;;;;;;5081710;28;20032;-43
2023/01/25 05:34:35;;;;;;;25.23;19.75;;;1.70;99.90;;;;;;5081622;28;20048;-43
2023/01/25 05:37:02;;;;;;;27.63;20.35;;;1.70;99.90;;;;;;5081424;28;20795;-43
2023/01/25 05:39:27;;;;;;;26.50;19.27;;;1.60;99.90;;;;;;5083118;28;20068;-43
2023/01/25 05:41:53;;;;;;;26.23;19.73;;;1.60;99.90;;;;;;5081528;28;20036;-44
2023/01/25 05:44:18;;;;;;;26.65;18.80;;;1.60;99.90;;;;;;5080981;28;20115;-44
2023/01/25 05:46:44;;;;;;;27.60;20.50;;;1.60;99.90;;;;;;5082403;28;20102;-44
2023/01/25 05:49:10;;;;;;;27.42;20.33;;;1.60;99.90;;;;;;5081055;28;20024;-43
2023/01/25 05:51:37;;;;;;;26.00;19.98;;;1.70;99.90;;;;;;5081870;28;20039;-43
2023/01/25 05:54:04;;;;;;;26.42;19.88;;;1.70;99.90;;;;;;5080929;28;20034;-42
2023/01/25 05:56:30;;;;;;;28.88;21.10;;;1.70;99.90;;;;;;5081522;28;20028;-42
2023/01/25 05:58:57;;;;;;;27.50;20.70;;;1.70;99.90;;;;;;5081549;28;20035;-43
2023/01/25 06:01:24;;;;;;;29.20;21.65;;;1.70;99.90;;;;;;5080731;28;20364;-42
2023/01/25 06:03:50;;;;;;;24.90;19.25;;;1.80;99.90;;;;;;5082514;28;20036;-42
2023/01/25 06:06:16;;;;;;;29.33;21.50;;;1.70;99.90;;;;;;5080600;28;20024;-44
2023/01/25 06:08:42;;;;;;;28.05;20.63;;;1.70;99.90;;;;;;5081823;28;20569;-42
2023/01/25 06:11:13;;;;;;;28.90;20.90;;;1.70;99.90;;;;;;5081507;28;20016;-42
2023/01/25 06:13:38;;;;;;;28.23;20.80;;;1.70;99.90;;;;;;5082399;28;20036;-43
2023/01/25 06:16:05;;;;;;;29.73;21.88;;;1.70;99.90;;;;;;5080827;28;20809;-43
2023/01/25 06:18:32;;;;;;;29.17;21.33;;;1.70;99.90;;;;;;5082196;28;20039;-42
2023/01/25 06:20:58;;;;;;;29.45;21.00;;;1.70;99.90;;;;;;5081840;28;20387;-43
2023/01/25 06:23:24;;;;;;;29.67;21.73;;;1.70;99.90;;;;;;5080906;28;20028;-43
2023/01/25 06:25:50;;;;;;;28.05;20.33;;;1.70;99.90;;;;;;5082379;28;20028;-43
2023/01/25 06:28:16;;;;;;;29.83;21.98;;;1.70;99.90;;;;;;5081454;28;20057;-43
2023/01/25 06:30:41;;;;;;;29.60;21.65;;;1.70;99.90;;;;;;5081018;28;20460;-43
2023/01/25 06:33:07;;;;;;;33.03;22.20;;;1.80;99.90;;;;;;5081402;28;20039;-42
2023/01/25 06:35:33;;;;;;;29.40;20.90;;;1.80;99.90;;;;;;5081211;28;20052;-44
2023/01/25 06:37:59;;;;;;;30.23;22.13;;;1.80;99.90;;;;;;5081315;28;20039;-43
2023/01/25 06:40:26;;;;;;;29.02;21.15;;;1.80;99.90;;;;;;5081251;28;20117;-42
2023/01/25 06:42:52;;;;;;;27.77;20.92;;;1.70;99.90;;;;;;5081443;28;20040;-43
2023/01/25 06:45:18;;;;;;;29.20;20.58;;;1.70;99.90;;;;;;5080397;28;20020;-43
2023/01/25 06:47:46;;;;;;;28.15;20.35;;;1.70;99.90;;;;;;5081278;28;20024;-43
2023/01/25 06:50:12;;;;;;;28.73;20.48;;;1.70;99.90;;;;;;5079944;28;20097;-43
2023/01/25 06:52:38;;;;;;;28.25;19.63;;;1.70;99.90;;;;;;5080940;28;20372;-43
2023/01/25 06:55:06;;;;;;;27.80;19.95;;;1.70;99.90;;;;;;5080682;28;20054;-43
2023/01/25 06:57:32;;;;;;;27.38;19.90;;;1.60;99.90;;;;;;5080551;28;20085;-43
2023/01/25 06:59:58;;;;;;;28.30;21.25;;;1.60;99.90;;;;;;5081255;28;20422;-43
2023/01/25 07:02:24;;;;;;;29.90;21.23;;;1.60;99.90;;;;;;5080814;28;20035;-44
2023/01/25 07:04:49;;;;;;;27.90;19.50;;;1.50;99.90;;;;;;5080195;28;20375;-43
2023/01/25 07:07:15;;;;;;;27.13;19.67;;;1.50;99.90;;;;;;5079955;28;20019;-42
2023/01/25 07:09:40;;;;;;;26.80;19.35;;;1.50;99.90;;;;;;5081238;28;20380;-43
2023/01/25 07:12:06;;;;;;;28.90;20.20;;;1.50;99.90;;;;;;5077247;28;20396;-43
2023/01/25 07:14:32;;;;;;;28.85;19.80;;;1.50;99.90;;;;;;5079980;28;20606;-43
2023/01/25 07:16:58;;;;;;;28.30;20.40;;;1.40;99.90;;;;;;5081481;28;20024;-43
2023/01/25 07:19:24;;;;;;;32.28;22.33;;;1.50;99.90;;;;;;5083329;28;20008;-42
2023/01/25 07:21:50;;;;;;;32.60;22.58;;;1.50;99.90;;;;;;5084717;28;20028;-42
2023/01/25 07:24:18;;;;;;;35.13;24.35;;;1.50;99.90;;;;;;5082923;28;20035;-43
2023/01/25 07:26:44;;;;;;;33.70;22.52;;;1.50;99.90;;;;;;5083026;28;20024;-43
2023/01/25 07:29:14;;;;;;;33.20;23.17;;;1.50;99.90;;;;;;5083632;28;20027;-43
2023/01/25 07:31:40;;;;;;;33.50;23.38;;;1.50;99.90;;;;;;5064480;28;20113;-42
2023/01/25 07:34:09;;;;;;;33.00;22.85;;;1.50;99.90;;;;;;5077200;28;20056;-42
2023/01/25 07:36:36;;;;;;;33.45;23.20;;;1.50;99.90;;;;;;5084281;28;20056;-43
2023/01/25 07:39:01;;;;;;;33.80;23.10;;;1.50;99.90;;;;;;5083412;28;20024;-42
2023/01/25 07:41:27;;;;;;;37.13;25.23;;;1.40;99.90;;;;;;5084227;28;20422;-42
2023/01/25 07:43:53;;;;;;;33.40;22.23;;;1.50;99.90;;;;;;5084820;28;20028;-42
2023/01/25 07:46:19;;;;;;;32.97;22.50;;;1.50;99.90;;;;;;5084404;28;20016;-43
2023/01/25 07:48:50;;;;;;;31.55;22.52;;;1.40;99.90;;;;;;5083495;28;20043;-42
2023/01/25 07:51:25;;;;;;;35.08;23.38;;;1.40;99.90;;;;;;5083524;28;20052;-42
2023/01/25 07:53:56;;;;;;;32.63;22.17;;;1.50;99.90;;;;;;5083879;28;20042;-43
2023/01/25 07:56:23;;;;;;;33.22;22.60;;;1.50;99.90;;;;;;5084009;28;20062;-42
2023/01/25 07:58:52;;;;;;;31.55;21.58;;;1.50;99.90;;;;;;5085117;28;20051;-43
2023/01/25 08:01:19;;;;;;;33.92;23.90;;;1.40;99.90;;;;;;5072691;28;20361;-43
2023/01/25 08:03:46;;;;;;;34.17;23.15;;;1.50;99.90;;;;;;5084613;28;20070;-43
2023/01/25 08:06:12;;;;;;;34.58;24.02;;;1.50;99.90;;;;;;5083787;28;20023;-42
2023/01/25 08:08:46;;;;;;;34.90;23.90;;;1.50;99.90;;;;;;5082730;28;20043;-42
2023/01/25 08:11:23;;;;;;;42.90;29.25;;;1.40;99.90;;;;;;5079966;28;20533;-43
2023/01/25 08:13:49;;;;;;;39.47;28.00;;;1.40;99.90;;;;;;5084212;28;20031;-43
2023/01/25 08:16:17;;;;;;;39.17;25.75;;;1.30;99.90;;;;;;5082098;28;20016;-43
2023/01/25 08:18:45;;;;;;;42.22;26.98;;;1.30;99.90;;;;;;5082861;28;20028;-43
2023/01/25 08:21:11;;;;;;;35.17;24.08;;;1.30;99.90;;;;;;5082844;28;20024;-44
2023/01/25 08:23:36;;;;;;;39.80;25.75;;;1.40;99.90;;;;;;5083173;28;20494;-44
2023/01/25 08:26:07;;;;;;;38.60;25.52;;;1.40;99.90;;;;;;5082903;28;20067;-43
2023/01/25 08:28:32;;;;;;;37.55;24.50;;;1.40;99.90;;;;;;5062326;28;20352;-43
2023/01/25 08:31:13;;;;;;;36.08;24.00;;;1.40;99.90;;;;;;5077639;28;20513;-43
2023/01/25 08:33:39;;;;;;;35.67;24.70;;;1.40;99.90;;;;;;5085309;28;20028;-43
2023/01/25 08:36:07;;;;;;;38.60;26.00;;;1.40;99.90;;;;;;5082492;28;20038;-43
2023/01/25 08:38:33;;;;;;;44.60;28.50;;;1.40;99.90;;;;;;5083889;28;20046;-43
2023/01/25 08:41:09;;;;;;;41.15;26.88;;;1.30;99.90;;;;;;5083177;28;20015;-43
2023/01/25 08:43:35;;;;;;;40.10;25.67;;;1.30;99.90;;;;;;5082761;28;20032;-43
2023/01/25 08:46:01;;;;;;;38.17;24.77;;;1.30;99.90;;;;;;5082843;28;20035;-43
2023/01/25 08:48:27;;;;;;;40.53;27.27;;;1.30;99.90;;;;;;5083469;28;20039;-43
2023/01/25 08:50:52;;;;;;;37.83;25.63;;;1.20;99.90;;;;;;5082492;28;20040;-43
2023/01/25 08:53:18;;;;;;;39.20;26.20;;;1.20;99.90;;;;;;5082675;28;20051;-42
2023/01/25 08:55:44;;;;;;;44.55;27.80;;;1.30;99.90;;;;;;5083599;28;20035;-43
2023/01/25 08:58:11;;;;;;;39.67;26.05;;;1.20;99.90;;;;;;5082053;28;20749;-43
2023/01/25 09:00:38;;;;;;;38.42;25.55;;;1.20;99.90;;;;;;5082900;28;20511;-42
2023/01/25 09:03:04;;;;;;;36.53;24.52;;;1.30;99.90;;;;;;5082995;28;20550;-43
2023/01/25 09:05:32;;;;;;;42.03;26.95;;;1.30;99.90;;;;;;5082758;28;20046;-43
2023/01/25 09:07:57;;;;;;;39.70;27.05;;;1.30;99.90;;;;;;5081658;28;20020;-43
2023/01/25 09:10:23;;;;;;;39.05;25.50;;;1.30;99.90;;;;;;5083254;28;20031;-42
2023/01/25 09:12:49;;;;;;;35.78;24.27;;;1.30;99.90;;;;;;5082111;28;20494;-42
2023/01/25 09:15:14;;;;;;;38.55;25.30;;;1.30;99.90;;;;;;5082472;28;20166;-43
2023/01/25 09:17:40;;;;;;;38.13;25.48;;;1.30;99.90;;;;;;5082356;28;20043;-43
2023/01/25 09:20:06;;;;;;;40.75;26.05;;;1.30;99.90;;;;;;5083415;28;20036;-43
2023/01/25 09:22:32;;;;;;;37.38;24.15;;;1.30;99.90;;;;;;5082066;28;20039;-43
2023/01/25 09:24:57;;;;;;;40.75;26.65;;;1.30;99.90;;;;;;5082381;28;20032;-43
2023/01/25 09:27:23;;;;;;;37.17;24.77;;;1.30;99.90;;;;;;5082197;28;20544;-43
2023/01/25 09:29:48;;;;;;;37.45;24.73;;;1.30;99.90;;;;;;5083005;28;20495;-44
2023/01/25 09:32:14;;;;;;;38.58;25.58;;;1.30;99.90;;;;;;5081906;28;20032;-43
2023/01/25 09:34:40;;;;;;;35.92;22.75;;;1.40;99.90;;;;;;5082310;28;20048;-43
2023/01/25 09:37:05;;;;;;;37.28;24.45;;;1.40;99.90;;;;;;5082393;28;20028;-43
2023/01/25 09:39:31;;;;;;;35.90;23.70;;;1.40;99.90;;;;;;5080255;28;20112;-42
2023/01/25 09:42:02;;;;;;;39.78;25.88;;;1.50;99.90;;;;;;5082581;28;20052;-42
2023/01/25 09:44:33;;;;;;;36.97;23.70;;;1.50;99.90;;;;;;5082589;28;20498;-43
2023/01/25 09:47:15;;;;;;;36.58;23.35;;;1.50;99.90;;;;;;5081422;28;20078;-43
2023/01/25 09:49:52;;;;;;;36.47;24.42;;;1.50;99.90;;;;;;5080661;28;20066;-43
2023/01/25 09:52:36;;;;;;;35.72;23.25;;;1.50;99.90;;;;;;5081764;28;20381;-43
2023/01/25 09:55:11;;;;;;;34.63;23.30;;;1.50;99.90;;;;;;5081190;28;20020;-44
2023/01/25 09:57:38;;;;;;;37.47;24.65;;;1.60;99.90;;;;;;5081964;28;20036;-43
2023/01/25 10:00:30;;;;;;;39.45;25.88;;;1.60;99.90;;;;;;5080519;28;20123;-43
2023/01/25 10:03:14;;;;;;;40.70;25.92;;;1.50;99.90;;;;;;5082043;28;20039;-43
2023/01/25 10:05:44;;;;;;;38.50;24.83;;;1.60;99.90;;;;;;5072928;28;20028;-43
2023/01/25 10:08:20;;;;;;;34.38;22.42;;;1.50;99.90;;;;;;5080944;28;20012;-44
2023/01/25 10:10:51;;;;;;;35.65;22.67;;;1.50;99.90;;;;;;5071606;28;20558;-44
2023/01/25 10:13:22;;;;;;;40.17;24.83;;;1.50;99.90;;;;;;5081052;28;20961;-44
2023/01/25 10:16:11;;;;;;;38.92;26.15;;;1.50;99.90;;;;;;5070682;28;20111;-43
2023/01/25 10:18:49;;;;;;;36.53;23.92;;;1.50;99.90;;;;;;5081765;28;20417;-43
2023/01/25 10:21:43;;;;;;;34.85;23.10;;;1.50;99.90;;;;;;5081182;28;20028;-42
2023/01/25 10:24:31;;;;;;;38.03;25.23;;;1.50;99.90;;;;;;5063174;28;20060;-42
2023/01/25 10:27:01;;;;;;;37.95;24.35;;;1.50;99.90;;;;;;5081980;28;20032;-44
2023/01/25 10:29:31;;;;;;;39.30;24.58;;;1.50;99.90;;;;;;5081107;28;20020;-44
2023/01/25 10:32:33;;;;;;;36.17;23.27;;;1.50;99.90;;;;;;5081793;28;20050;-44
2023/01/25 10:35:14;;;;;;;38.42;24.58;;;1.50;99.90;;;;;;5080747;28;20066;-42
2023/01/25 10:37:40;;;;;;;36.95;24.05;;;1.60;99.90;;;;;;5081820;28;20028;-42
2023/01/25 10:40:26;;;;;;;41.20;27.20;;;1.60;99.90;;;;;;5080856;28;20054;-43
2023/01/25 10:43:05;;;;;;;39.30;24.73;;;1.50;99.90;;;;;;5080784;28;20046;-43
2023/01/25 10:45:31;;;;;;;34.15;21.90;;;1.60;99.90;;;;;;5081197;28;20031;-42
2023/01/25 10:48:10;;;;;;;40.33;26.27;;;1.60;99.90;;;;;;5081093;28;20486;-43
2023/01/25 10:50:41;;;;;;;37.28;24.27;;;1.50;99.90;;;;;;5081023;28;20105;-44
2023/01/25 10:53:24;;;;;;;36.08;23.83;;;1.60;99.90;;;;;;5080488;28;20104;-43
2023/01/25 10:55:54;;;;;;;;;;;1.60;99.90;;;;;;5081841;28;20020;-43
2023/01/25 10:58:45;;;;;;;37.38;23.00;;;1.60;99.90;;;;;;5080480;28;20430;-44
2023/01/25 11:01:43;;;;;;;35.78;22.67;;;1.60;99.90;;;;;;5080766;28;20082;-43
2023/01/25 11:04:46;;;;;;;38.65;23.88;;;1.60;99.90;;;;;;5026582;28;20044;-43
2023/01/25 11:07:26;;;;;;;35.75;23.00;;;1.60;99.90;;;;;;5055446;28;20029;-43
2023/01/25 11:09:52;;;;;;;38.53;24.38;;;1.70;99.90;;;;;;5078830;28;20036;-43
2023/01/25 11:12:19;;;;;;;40.97;25.27;;;1.70;99.90;;;;;;5079984;28;20085;-43
2023/01/25 11:14:49;;;;;;;40.60;24.85;;;1.70;99.90;;;;;;5080947;28;20043;-43
2023/01/25 11:17:25;;;;;;;41.08;26.00;;;1.70;99.90;;;;;;5080074;28;20073;-43
2023/01/25 11:20:16;;;;;;;44.30;27.35;;;1.70;99.90;;;;;;5081629;28;20127;-43
2023/01/25 11:22:50;;;;;;;45.35;27.25;;;1.70;99.90;;;;;;5071547;28;20036;-42
2023/01/25 11:25:28;;;;;;;39.92;25.27;;;1.70;99.90;;;;;;5079986;28;20138;-43
2023/01/25 11:28:15;;;;;;;40.70;25.63;;;1.60;99.90;;;;;;5078470;28;20024;-44
2023/01/25 11:30:41;;;;;;;44.58;27.05;;;1.60;99.90;;;;;;5081430;28;20024;-43
2023/01/25 11:33:15;;;;;;;40.83;25.75;;;1.60;99.90;;;;;;5080449;28;20028;-44
2023/01/25 11:35:59;;;;;;;41.40;25.50;;;1.60;99.90;;;;;;5080707;28;20044;-44
2023/01/25 11:38:24;;;;;;;40.22;24.77;;;1.70;99.90;;;;;;5079769;28;20032;-44
2023/01/25 11:41:05;;;;;;;41.10;26.15;;;1.70;99.90;;;;;;5080500;28;20030;-44
2023/01/25 11:43:56;;;;;;;42.65;27.02;;;1.70;99.90;;;;;;5078731;28;20113;-43
2023/01/25 11:46:37;;;;;;;43.35;27.40;;;1.70;99.90;;;;;;5079842;28;20426;-44
2023/01/25 11:49:11;;;;;;;40.83;25.25;;;1.70;99.90;;;;;;5070629;28;20036;-42
2023/01/25 11:51:39;;;;;;;41.95;26.83;;;1.80;99.90;;;;;;5080660;28;20105;-43
2023/01/25 11:54:24;;;;;;;41.20;26.50;;;1.80;99.90;;;;;;5068648;28;20039;-43
2023/01/25 11:57:04;;;;;;;43.42;26.60;;;1.80;99.90;;;;;;5080973;28;20039;-42
2023/01/25 11:59:44;;;;;;;46.65;29.27;;;1.80;99.90;;;;;;5071879;28;20028;-43
2023/01/25 12:02:32;;;;;;;49.67;30.15;;;1.80;99.90;;;;;;5079891;28;20433;-43
2023/01/25 12:05:16;;;;;;;48.42;29.95;;;1.80;99.90;;;;;;5083813;28;20173;-43
2023/01/25 12:08:19;;;;;;;43.97;26.77;;;1.80;99.90;;;;;;5083811;28;20094;-43
2023/01/25 12:11:02;;;;;;;44.28;26.00;;;1.80;99.90;;;;;;5084479;28;20032;-43
2023/01/25 12:13:35;;;;;;;46.05;27.88;;;1.80;99.90;;;;;;5083430;28;20036;-43
2023/01/25 12:16:24;;;;;;;45.30;27.70;;;1.80;99.90;;;;;;5083690;28;20024;-43
2023/01/25 12:19:17;;;;;;;47.50;28.10;;;1.80;99.90;;;;;;5070012;28;20032;-43
2023/01/25 12:22:07;;;;;;;43.70;26.92;;;1.80;99.90;;;;;;5063993;28;20474;-43
2023/01/25 12:25:02;;;;;;;48.22;28.50;;;1.80;99.90;;;;;;5082809;28;20061;-43
2023/01/25 12:27:53;;;;;;;46.85;28.02;;;1.80;99.90;;;;;;5083869;28;20035;-43
2023/01/25 12:30:35;;;;;;;47.65;28.70;;;1.80;99.90;;;;;;5073247;28;20028;-44
2023/01/25 12:33:21;;;;;;;50.30;29.85;;;1.70;99.90;;;;;;5083751;28;20681;-43
2023/01/25 12:35:55;;;;;;;50.67;28.77;;;1.70;99.90;;;;;;5074494;28;20056;-44
2023/01/25 12:38:43;;;;;;;49.30;29.38;;;1.60;99.90;;;;;;5083040;28;20032;-43
2023/01/25 12:41:37;;;;;;;48.75;28.55;;;1.60;99.90;;;;;;5083866;28;20032;-44
2023/01/25 12:44:18;;;;;;;51.22;29.70;;;1.60;99.90;;;;;;5083243;28;20024;-44
2023/01/25 12:47:19;;;;;;;49.05;28.85;;;1.60;99.90;;;;;;5083666;28;20038;-44
2023/01/25 12:49:47;;;;;;;53.28;31.30;;;1.60;99.90;;;;;;5036906;28;20031;-43
2023/01/25 12:52:22;;;;;;;48.38;29.27;;;1.60;99.90;;;;;;5082776;28;20044;-43